Time;durP1;ratioP1;P1;durP2;ratioP2;P2;SDS_P1;SDS_P2;PMS_P1;PMS_P2;Temp;Humidity;BMP_temperature;BMP_pressure;BME280_temperature;BME280_humidity;BME280_pressure;Samples;Min_cycle;Max_cycle;Signal;HPM_P1;HPM_P2
2022/06/02 00:01:54;;;;;;;15.98;11.75;;;;;;;12.48;77.52;100261.91;1698304;84;25525;-72
2022/06/02 00:04:34;;;;;;;18.23;13.68;;;;;;;12.52;77.75;100272.34;1643190;87;25438;-72
2022/06/02 00:07:12;;;;;;;;;;;;;;;12.56;77.65;100271.70;1619380;88;28101;-72
2022/06/02 00:09:49;;;;;;;17.75;13.43;;;;;;;12.59;77.73;100262.93;1586527;90;25591;-71
2022/06/02 00:12:35;;;;;;;16.57;12.82;;;;;;;12.61;77.58;100257.97;1617069;88;25536;-71
2022/06/02 00:15:19;;;;;;;16.85;11.90;;;;;;;12.63;77.42;100253.01;1617061;88;25643;-73
2022/06/02 00:18:09;;;;;;;19.12;12.18;;;;;;;12.66;77.48;100248.30;1617061;88;25545;-71
2022/06/02 00:20:42;;;;;;;;;;;;;;;12.68;77.59;100238.73;1619551;88;27535;-71
2022/06/02 00:23:47;;;;;;;17.15;12.30;;;;;;;12.73;77.49;100259.45;1585480;90;25709;-72
2022/06/02 00:26:34;;;;;;;15.83;12.05;;;;;;;12.74;77.29;100262.98;1590206;90;25704;-73
2022/06/02 00:29:14;;;;;;;16.80;13.03;;;;;;;12.76;77.39;100271.02;1589721;90;25532;-72
2022/06/02 00:32:14;;;;;;;14.80;11.90;;;;;;;12.77;77.13;100271.27;1590195;90;25749;-72
2022/06/02 00:34:55;;;;;;;14.65;11.12;;;;;;;12.79;77.19;100276.38;1586175;90;27945;-71
2022/06/02 00:37:35;;;;;;;17.27;12.35;;;;;;;12.81;77.09;100279.55;1602187;88;25688;-73
2022/06/02 00:40:04;;;;;;;15.90;11.25;;;;;;;12.80;77.19;100286.88;1570168;91;25749;-73
2022/06/02 00:42:58;;;;;;;13.72;11.03;;;;;;;12.79;76.73;100289.94;1629128;87;26385;-71
2022/06/02 00:45:25;;;;;;;13.85;11.95;;;;;;;12.79;76.76;100292.66;1608774;89;25504;-73
2022/06/02 00:48:18;;;;;;;21.68;13.08;;;;;;;12.76;77.22;100287.87;1636503;87;27885;-71
2022/06/02 00:51:02;;;;;;;13.53;11.88;;;;;;;12.74;77.39;100285.47;1608245;89;25631;-72
2022/06/02 01:00:17;;;;;;;17.15;11.80;;;;;;;12.59;77.60;100282.70;1623692;88;25560;-73
2022/06/02 01:02:57;;;;;;;14.60;12.07;;;;;;;12.54;78.02;100299.16;1623629;88;27269;-72
2022/06/02 01:05:53;;;;;;;15.75;11.88;;;;;;;12.48;78.27;100293.11;1616919;88;25751;-72
2022/06/02 01:08:27;;;;;;;14.18;12.68;;;;;;;12.45;78.43;100292.39;1636046;87;25594;-72
2022/06/02 01:11:35;;;;;;;18.27;13.40;;;;;;;12.43;78.96;100297.89;1566859;91;26463;-72
2022/06/02 01:14:32;;;;;;;16.05;12.60;;;;;;;12.40;78.85;100296.62;1594150;90;25759;-73
2022/06/02 01:17:21;;;;;;;14.63;12.10;;;;;;;12.40;78.89;100302.05;1615849;85;27356;-73
2022/06/02 01:20:05;;;;;;;14.10;12.60;;;;;;;12.39;78.59;100305.88;1694821;84;25632;-72
2022/06/02 01:23:00;;;;;;;13.65;12.20;;;;;;;12.41;78.80;100315.05;1676060;85;25545;-73
2022/06/02 01:25:53;;;;;;;17.67;13.22;;;;;;;12.42;78.72;100323.44;1674916;85;25947;-69
2022/06/02 01:29:13;;;;;;;15.78;12.88;;;;;;;12.42;79.03;100323.44;1676204;85;25661;-71
2022/06/02 01:32:06;;;;;;;16.37;13.45;;;;;;;12.43;79.27;100331.80;1676193;85;28137;-73
2022/06/02 01:35:03;;;;;;;13.88;12.43;;;;;;;12.42;79.56;100330.22;1674898;85;25890;-72
2022/06/02 01:37:56;;;;;;;14.43;12.40;;;;;;;12.40;79.82;100312.91;1676173;85;25795;-71
2022/06/02 01:40:56;;;;;;;13.70;12.30;;;;;;;12.42;79.94;100307.16;1672782;85;26532;-71
2022/06/02 01:43:40;;;;;;;13.62;12.23;;;;;;;12.43;79.78;100316.34;1676004;85;25438;-71
2022/06/02 01:46:44;;;;;;;13.75;12.03;;;;;;;12.45;80.11;100311.95;1615809;88;27349;-72
2022/06/02 01:49:38;;;;;;;14.15;12.25;;;;;;;12.44;80.06;100298.92;1645890;86;26483;-72
2022/06/02 01:52:19;;;;;;;13.98;12.28;;;;;;;12.45;79.99;100301.09;1650583;86;25733;-71
2022/06/02 01:55:24;;;;;;;13.93;12.45;;;;;;;12.45;79.82;100303.81;1649805;86;25570;-71
2022/06/02 01:58:15;;;;;;;13.30;11.88;;;;;;;12.44;79.75;100298.92;1643609;86;25271;-72
2022/06/02 02:00:46;;;;;;;13.55;11.85;;;;;;;12.45;79.80;100296.46;1670765;85;27364;-71
2022/06/02 02:03:24;;;;;;;14.18;11.88;;;;;;;12.45;80.00;100284.83;1693943;84;25746;-72
2022/06/02 02:06:13;;;;;;;18.15;12.63;;;;;;;12.43;79.86;100271.58;1676346;85;25278;-75
2022/06/02 02:08:45;;;;;;;16.70;13.38;;;;;;;12.43;79.86;100271.58;1676046;85;25613;-73
2022/06/02 02:11:34;;;;;;;15.13;12.47;;;;;;;12.44;79.98;100280.50;1676541;85;25416;-73
2022/06/02 02:14:06;;;;;;;15.85;12.98;;;;;;;12.44;80.43;100274.52;1676036;85;27334;-73
2022/06/02 02:16:47;;;;;;;17.92;12.90;;;;;;;12.46;80.21;100272.30;1676334;85;25651;-71
2022/06/02 02:19:32;;;;;;;14.18;12.45;;;;;;;12.47;80.47;100271.16;1663609;85;25576;-73
2022/06/02 02:22:06;;;;;;;13.80;12.45;;;;;;;12.47;80.54;100280.66;1676104;85;26528;-71
2022/06/02 02:24:47;;;;;;;14.20;12.80;;;;;;;12.47;80.30;100271.73;1676266;85;25703;-75
2022/06/02 02:27:27;;;;;;;13.88;11.33;;;;;;;12.46;80.49;100260.63;1676441;85;28073;-73
2022/06/02 02:30:10;;;;;;;15.38;13.70;;;;;;;12.42;80.65;100267.26;1676345;85;25866;-72
2022/06/02 02:33:33;;;;;;;14.68;13.13;;;;;;;12.40;80.56;100287.70;1676384;85;25567;-72
2022/06/02 02:36:17;;;;;;;15.80;12.70;;;;;;;12.35;80.73;100302.78;1676327;85;25618;-71
2022/06/02 02:39:13;;;;;;;15.28;13.00;;;;;;;12.29;81.02;100302.13;1672479;85;25486;-70
2022/06/02 02:41:59;;;;;;;15.83;13.83;;;;;;;12.23;81.23;100302.86;1676334;85;27383;-71
2022/06/02 02:44:40;;;;;;;14.40;12.93;;;;;;;12.21;81.68;100302.92;1676322;85;25703;-71
2022/06/02 02:47:21;;;;;;;14.90;13.25;;;;;;;12.20;81.89;100298.06;1676412;85;25541;-71
2022/06/02 02:50:05;;;;;;;18.27;13.78;;;;;;;12.19;82.14;100297.84;1676464;85;25686;-74
2022/06/02 02:53:06;;;;;;;15.85;13.40;;;;;;;12.19;82.38;100296.49;1676442;85;25719;-72
2022/06/02 02:55:53;;;;;;;17.23;13.68;;;;;;;12.21;82.55;100300.21;1675673;85;28075;-72
2022/06/02 02:58:39;;;;;;;15.93;13.70;;;;;;;12.21;82.58;100320.02;1674724;85;25431;-72
2022/06/02 03:01:28;;;;;;;17.57;13.05;;;;;;;12.21;83.00;100344.95;1663958;85;25454;-72
2022/06/02 03:04:21;;;;;;;18.57;13.83;;;;;;;12.18;83.34;100357.25;1667954;85;25665;-71
2022/06/02 03:06:54;;;;;;;17.55;13.00;;;;;;;12.14;83.73;100363.88;1668174;86;25470;-70
2022/06/02 03:10:01;;;;;;;14.75;13.08;;;;;;;12.10;83.83;100349.91;1668022;86;28122;-72
2022/06/02 03:13:01;;;;;;;15.23;13.62;;;;;;;12.11;83.98;100369.13;1668035;86;25674;-72
2022/06/02 03:15:44;;;;;;;14.40;12.90;;;;;;;12.10;84.46;100382.44;1667917;86;25676;-72
2022/06/02 03:18:51;;;;;;;16.75;12.20;;;;;;;12.10;84.48;100396.78;1668001;86;25878;-73
2022/06/02 03:21:34;;;;;;;16.32;12.55;;;;;;;12.12;84.90;100393.76;1668041;86;25679;-72
2022/06/02 03:24:24;;;;;;;14.65;12.93;;;;;;;12.14;84.63;100396.41;1668028;86;27391;-72
2022/06/02 03:27:13;;;;;;;14.85;13.30;;;;;;;12.19;84.76;100390.58;1668117;86;25522;-71
2022/06/02 03:29:53;;;;;;;15.57;13.93;;;;;;;12.22;84.87;100388.59;1668067;86;25531;-71
2022/06/02 03:32:58;;;;;;;13.88;12.43;;;;;;;12.25;84.90;100383.33;1666421;86;25622;-71
2022/06/02 03:35:47;;;;;;;13.72;12.43;;;;;;;12.28;84.83;100388.12;1668053;86;25762;-71
2022/06/02 03:38:19;;;;;;;14.65;12.85;;;;;;;12.30;84.93;100387.25;1668194;86;27321;-70
2022/06/02 03:41:18;;;;;;;14.58;13.05;;;;;;;12.32;84.95;100391.78;1669925;85;25672;-70
2022/06/02 03:44:20;;;;;;;15.03;13.50;;;;;;;12.33;85.27;100392.61;1673790;85;32402;-72
2022/06/02 03:47:18;;;;;;;17.57;13.50;;;;;;;12.32;85.20;100401.28;1673217;85;25630;-71
2022/06/02 03:49:56;;;;;;;16.75;13.30;;;;;;;12.34;85.33;100395.54;1682839;83;25714;-71
2022/06/02 03:52:28;;;;;;;15.45;13.83;;;;;;;12.36;85.56;100413.67;1694118;83;27407;-71
2022/06/02 03:55:02;;;;;;;15.80;13.22;;;;;;;12.40;85.53;100416.55;1694124;84;25454;-71
2022/06/02 03:57:46;;;;;;;14.95;13.32;;;;;;;12.41;85.63;100409.98;1727428;81;25428;-71
2022/06/02 04:00:21;;;;;;;17.07;13.25;;;;;;;12.43;85.51;100411.81;1760348;81;25645;-72
2022/06/02 04:02:54;;;;;;;14.90;12.53;;;;;;;12.45;85.52;100410.97;1759551;81;25689;-70
2022/06/02 04:05:59;;;;;;;14.83;12.82;;;;;;;12.49;85.50;100415.41;1759903;81;28205;-70
2022/06/02 04:08:46;;;;;;;15.75;13.08;;;;;;;12.52;85.52;100419.42;1760221;81;25835;-70
2022/06/02 04:15:01;;;;;;;14.13;12.55;;;;;;;12.56;85.48;100424.44;1760252;81;25693;-71
2022/06/02 04:17:48;;;;;;;14.10;12.60;;;;;;;12.58;85.42;100432.26;1760261;81;25689;-69
2022/06/02 04:20:34;;;;;;;13.68;12.23;;;;;;;12.59;85.42;100433.87;1681791;84;27556;-69
2022/06/02 04:23:44;;;;;;;17.57;12.58;;;;;;;12.60;85.50;100432.73;1661614;86;25642;-70
2022/06/02 04:26:54;;;;;;;15.63;12.78;;;;;;;12.58;85.62;100433.08;1661820;86;25490;-70
2022/06/02 04:29:45;;;;;;;13.55;12.25;;;;;;;12.56;85.63;100435.86;1661639;86;25711;-70
2022/06/02 04:32:35;;;;;;;16.05;12.68;;;;;;;12.54;85.75;100439.45;1661815;86;25459;-70
2022/06/02 04:35:34;;;;;;;12.50;11.20;;;;;;;12.50;85.83;100425.73;1661937;86;28122;-71
2022/06/02 04:38:36;;;;;;;14.35;12.50;;;;;;;12.48;86.04;100423.33;1611856;89;27380;-69
2022/06/02 04:41:13;;;;;;;14.78;13.22;;;;;;;12.49;86.05;100428.98;1612255;89;25677;-70
2022/06/02 04:44:20;;;;;;;15.68;13.83;;;;;;;12.49;86.12;100423.55;1588260;90;26360;-69
2022/06/02 04:47:19;;;;;;;16.15;14.50;;;;;;;12.51;86.41;100418.62;1612139;89;25508;-68
2022/06/02 04:50:18;;;;;;;18.90;15.68;;;;;;;12.52;86.51;100412.64;1612300;89;27652;-70
2022/06/02 04:53:01;;;;;;;15.72;14.00;;;;;;;12.56;86.85;100408.72;1596958;89;25789;-68
2022/06/02 04:55:54;;;;;;;16.62;13.98;;;;;;;12.59;86.86;100418.38;1596887;89;25801;-71
2022/06/02 04:58:44;;;;;;;15.08;13.35;;;;;;;12.63;86.68;100422.60;1633199;87;25758;-70
2022/06/02 05:01:41;;;;;;;13.40;12.05;;;;;;;12.66;86.52;100429.55;1642272;87;25632;-71
2022/06/02 05:04:31;;;;;;;13.30;11.90;;;;;;;12.66;86.39;100435.54;1642018;87;27367;-69
2022/06/02 05:07:39;;;;;;;15.05;13.25;;;;;;;12.69;86.41;100451.19;1554930;89;25693;-69
2022/06/02 05:10:10;;;;;;;16.00;13.35;;;;;;;12.70;86.46;100450.05;1574158;91;25542;-70
2022/06/02 05:13:00;;;;;;;13.50;12.07;;;;;;;12.73;86.42;100433.70;1574050;91;25623;-69
2022/06/02 05:15:36;;;;;;;;;;;;;;;12.75;86.49;100430.11;1591205;89;25506;-70
2022/06/02 05:18:25;;;;;;;13.32;12.03;;;;;;;12.77;86.58;100441.44;1620149;88;28132;-70
2022/06/02 05:21:00;;;;;;;;;;;;;;;12.76;86.40;100446.64;1598298;88;26155;-69
2022/06/02 05:23:56;;;;;;;17.32;12.05;;;;;;;12.75;86.56;100449.11;1620950;88;25587;-70
2022/06/02 05:26:53;;;;;;;14.68;11.83;;;;;;;12.74;86.51;100440.17;1601207;89;25860;-71
2022/06/02 05:29:44;;;;;;;13.58;12.20;;;;;;;12.75;86.49;100443.67;1608265;88;25773;-71
2022/06/02 05:32:19;;;;;;;13.15;11.78;;;;;;;12.78;86.57;100452.55;1639667;87;28051;-70
2022/06/02 05:35:15;;;;;;;13.38;12.00;;;;;;;12.78;86.61;100457.97;1639400;87;25618;-70
2022/06/02 05:37:46;;;;;;;13.38;11.35;;;;;;;12.78;86.45;100455.26;1639790;87;25793;-69
2022/06/02 05:40:38;;;;;;;11.30;10.10;;;;;;;12.75;86.31;100453.97;1639862;87;25865;-71
2022/06/02 05:43:22;;;;;;;14.13;12.65;;;;;;;12.75;86.32;100453.97;1621949;88;25473;-70
2022/06/02 05:46:09;;;;;;;14.55;10.98;;;;;;;12.76;86.42;100462.92;1694946;84;27549;-69
2022/06/02 05:48:46;;;;;;;10.23;9.23;;;;;;;12.76;86.43;100469.71;1710393;82;25695;-69
2022/06/02 05:51:42;;;;;;;9.68;8.78;;;;;;;12.77;86.36;100457.72;1665119;86;25749;-69
2022/06/02 05:54:32;;;;;;;9.83;8.93;;;;;;;12.76;86.28;100442.57;1709844;83;26264;-68
2022/06/02 05:57:30;;;;;;;9.38;8.38;;;;;;;12.76;86.28;100431.14;1665474;86;26396;-70
2022/06/02 06:00:32;;;;;;;10.45;9.20;;;;;;;12.77;86.43;100429.22;1664446;84;28109;-69
2022/06/02 06:03:29;;;;;;;11.90;8.88;;;;;;;12.81;86.76;100433.70;1661374;86;26286;-69
2022/06/02 06:06:04;;;;;;;9.93;8.93;;;;;;;12.82;86.95;100433.95;1661249;86;25673;-68
2022/06/02 06:09:01;;;;;;;10.82;9.73;;;;;;;12.84;87.10;100426.84;1661321;86;26268;-71
2022/06/02 06:11:37;;;;;;;13.28;9.70;;;;;;;12.84;86.96;100423.56;1661273;86;25840;-69
2022/06/02 06:14:18;;;;;;;10.20;9.30;;;;;;;12.84;86.88;100420.06;1661410;86;27325;-69
2022/06/02 06:17:16;;;;;;;12.95;10.50;;;;;;;12.84;86.91;100437.14;1661301;86;25778;-69
2022/06/02 06:20:04;;;;;;;14.60;10.45;;;;;;;12.83;86.91;100437.45;1661260;86;25752;-70
2022/06/02 06:22:59;;;;;;;13.43;10.93;;;;;;;12.82;87.11;100444.80;1661306;86;25620;-70
2022/06/02 06:26:04;;;;;;;11.20;10.00;;;;;;;12.82;87.17;100446.70;1660117;86;25783;-70
2022/06/02 06:28:40;;;;;;;12.10;11.00;;;;;;;12.82;87.32;100442.09;1661369;86;27564;-69
2022/06/02 06:31:30;;;;;;;15.70;11.55;;;;;;;12.81;87.35;100442.41;1661332;86;25661;-69
2022/06/02 06:34:08;;;;;;;11.93;10.75;;;;;;;12.82;87.66;100438.56;1665637;85;25648;-70
2022/06/02 06:37:01;;;;;;;14.90;12.37;;;;;;;12.84;87.87;100426.84;1663140;85;25669;-69
2022/06/02 06:39:35;;;;;;;15.58;13.15;;;;;;;12.88;88.31;100426.43;1671025;85;25701;-69
2022/06/02 06:42:16;;;;;;;15.28;12.68;;;;;;;12.97;88.89;100415.55;1670949;85;29554;-68
2022/06/02 06:45:18;;;;;;;15.23;13.70;;;;;;;13.11;89.63;100404.50;1671195;85;25678;-68
2022/06/02 06:48:04;;;;;;;14.38;12.88;;;;;;;13.30;90.07;100417.71;1671101;85;25656;-68
2022/06/02 06:50:43;;;;;;;16.35;12.50;;;;;;;13.61;90.45;100427.00;1671279;85;25702;-68
2022/06/02 06:53:34;;;;;;;13.62;12.23;;;;;;;14.06;93.06;100422.94;1684209;84;25742;-71
2022/06/02 06:56:15;;;;;;;12.20;11.00;;;;;;;14.51;93.03;100429.92;1674086;85;27585;-69
2022/06/02 06:58:53;;;;;;;9.23;7.47;;;;;;;14.88;90.35;100436.13;1678946;84;25797;-70
2022/06/02 07:01:42;;;;;;;9.55;6.65;;;;;;;15.12;88.62;100436.22;1700938;84;25719;-70
2022/06/02 07:04:47;;;;;;;8.70;6.60;;;;;;;15.31;86.42;100433.55;1701438;84;25616;-71
2022/06/02 07:07:41;;;;;;;6.53;5.92;;;;;;;15.66;86.13;100439.95;1701152;84;25618;-69
2022/06/02 07:10:25;;;;;;;7.33;5.67;;;;;;;16.09;85.73;100451.47;1672624;85;28135;-69
2022/06/02 07:13:23;;;;;;;9.93;5.90;;;;;;;16.35;84.02;100455.98;1672488;85;25677;-70
2022/06/02 07:16:12;;;;;;;4.43;4.03;;;;;;;16.67;83.73;100460.80;1672833;85;26381;-69
2022/06/02 07:19:05;;;;;;;5.75;3.90;;;;;;;16.92;80.81;100462.91;1672515;85;25688;-65
2022/06/02 07:21:48;;;;;;;5.47;4.08;;;;;;;17.18;81.15;100467.35;1672734;85;25549;-64
2022/06/02 07:24:56;;;;;;;4.80;4.30;;;;;;;17.63;81.85;100459.12;1672445;85;27342;-65
2022/06/02 07:27:37;;;;;;;4.45;4.03;;;;;;;18.11;80.45;100465.38;1672437;85;25844;-65
2022/06/02 07:30:20;;;;;;;4.97;4.47;;;;;;;18.56;78.49;100457.74;1672515;85;25780;-64
2022/06/02 07:33:26;;;;;;;5.92;4.12;;;;;;;18.67;76.39;100466.98;1672104;85;27772;-65
2022/06/02 07:36:29;;;;;;;4.17;3.77;;;;;;;18.84;76.17;100465.21;1672673;85;25642;-66
2022/06/02 07:39:19;;;;;;;4.05;3.70;;;;;;;18.94;75.19;100468.55;1672669;85;27416;-65
2022/06/02 07:42:06;;;;;;;;;;;;;;;19.02;74.58;100477.13;1675226;85;25517;-64
2022/06/02 07:45:10;;;;;;;6.72;3.60;;;;;;;19.07;73.59;100489.17;1671687;85;26283;-65
2022/06/02 07:48:15;;;;;;;4.00;3.60;;;;;;;19.00;72.66;100487.08;1687797;84;25823;-69
2022/06/02 07:50:52;;;;;;;5.03;3.83;;;;;;;19.00;72.63;100497.23;1700999;84;25567;-69
2022/06/02 07:53:33;;;;;;;6.05;4.90;;;;;;;18.98;72.11;100505.03;1696234;84;27345;-69
2022/06/02 07:56:33;;;;;;;5.33;4.25;;;;;;;19.05;71.32;100501.05;1701250;84;25649;-70
2022/06/02 07:59:29;;;;;;;8.13;3.80;;;;;;;19.43;73.11;100498.63;1699181;84;25693;-71
2022/06/02 08:02:19;;;;;;;6.15;4.17;;;;;;;19.93;71.63;100509.92;1694967;84;25652;-70
2022/06/02 08:04:52;;;;;;;3.22;2.98;;;;;;;20.31;70.43;100506.80;1695044;84;25810;-70
2022/06/02 08:07:27;;;;;;;3.10;2.80;;;;;;;20.37;67.90;100507.84;1694676;84;27294;-71
2022/06/02 08:10:18;;;;;;;6.78;2.67;;;;;;;20.24;66.13;100501.17;1695346;84;25585;-70
2022/06/02 08:13:09;;;;;;;3.02;2.25;;;;;;;20.05;65.49;100518.54;1695417;84;25672;-70
2022/06/02 08:16:05;;;;;;;2.65;1.77;;;;;;;19.79;64.80;100523.41;1695519;84;25662;-71
2022/06/02 08:19:08;;;;;;;3.87;1.67;;;;;;;19.52;63.46;100525.26;1695704;84;25563;-70
2022/06/02 08:21:57;;;;;;;3.83;1.72;;;;;;;19.23;63.31;100527.45;1667167;84;27336;-71
2022/06/02 08:24:55;;;;;;;3.25;1.70;;;;;;;19.05;62.06;100521.61;1667562;85;25636;-71
2022/06/02 08:27:39;;;;;;;3.58;1.77;;;;;;;18.88;63.35;100541.23;1667344;86;25613;-71
2022/06/02 08:30:32;;;;;;;2.50;1.85;;;;;;;18.81;63.22;100540.47;1667200;84;25746;-70
2022/06/02 08:33:48;;;;;;;3.17;1.60;;;;;;;18.75;63.19;100530.38;1667087;84;25605;-71
2022/06/02 08:36:25;;;;;;;3.58;2.20;;;;;;;18.69;63.86;100546.08;1667593;86;27449;-70
2022/06/02 08:39:09;;;;;;;3.90;2.10;;;;;;;18.67;63.87;100551.33;1667344;86;25605;-70
2022/06/02 08:42:07;;;;;;;2.10;1.87;;;;;;;18.66;63.85;100547.02;1667193;85;25616;-69
2022/06/02 08:45:14;;;;;;;3.10;2.20;;;;;;;18.64;64.54;100554.81;1667376;85;25751;-70
2022/06/02 08:47:48;;;;;;;3.75;2.52;;;;;;;18.48;63.74;100558.93;1667268;85;25656;-69
2022/06/02 08:50:45;;;;;;;3.40;2.67;;;;;;;18.23;64.00;100563.81;1637739;86;28578;-69
2022/06/02 08:53:52;;;;;;;3.95;3.15;;;;;;;18.09;64.61;100583.42;1666000;86;25815;-69
2022/06/02 08:56:39;;;;;;;6.12;3.30;;;;;;;17.98;64.97;100576.91;1667195;86;25450;-69
2022/06/02 08:59:29;;;;;;;4.17;2.70;;;;;;;17.93;65.78;100579.90;1670309;84;25712;-69
2022/06/02 09:02:36;;;;;;;3.90;2.40;;;;;;;18.09;66.08;100579.89;1695250;84;25754;-69
2022/06/02 09:05:37;;;;;;;2.72;2.52;;;;;;;18.54;65.77;100574.53;1728129;82;27518;-71
2022/06/02 09:08:46;;;;;;;3.42;2.80;;;;;;;19.38;66.06;100573.20;1728088;82;26287;-70
2022/06/02 09:11:30;;;;;;;2.40;2.20;;;;;;;20.20;64.07;100565.47;1729681;82;25394;-69
2022/06/02 09:14:31;;;;;;;4.75;2.90;;;;;;;20.61;62.86;100571.97;1728586;83;25675;-69
2022/06/02 09:17:02;;;;;;;3.52;2.27;;;;;;;20.82;60.12;100574.28;1730083;82;25750;-69
2022/06/02 09:20:03;;;;;;;3.72;2.72;;;;;;;20.77;58.75;100572.41;1729701;82;27477;-70
2022/06/02 09:22:41;;;;;;;5.50;3.00;;;;;;;20.74;58.14;100564.34;1729841;82;25715;-69
2022/06/02 09:25:17;;;;;;;3.70;2.80;;;;;;;20.71;58.39;100562.33;1729669;82;25702;-69
2022/06/02 09:28:23;;;;;;;3.50;2.55;;;;;;;20.72;58.12;100573.52;1722695;82;26353;-70
2022/06/02 09:31:27;;;;;;;3.30;3.00;;;;;;;20.64;57.59;100572.64;1730036;82;25610;-71
2022/06/02 09:34:17;;;;;;;5.40;2.72;;;;;;;20.57;57.52;100567.58;1712946;83;28197;-71
2022/06/02 09:37:24;;;;;;;4.12;2.55;;;;;;;20.51;57.54;100572.02;1712714;83;25640;-70
2022/06/02 09:40:06;;;;;;;4.00;2.58;;;;;;;20.75;58.35;100579.66;1713151;83;25788;-69
2022/06/02 09:43:13;;;;;;;4.53;2.35;;;;;;;21.02;58.04;100585.13;1712952;83;25776;-70
2022/06/02 09:46:14;;;;;;;3.70;2.30;;;;;;;21.28;57.80;100582.88;1685885;85;25695;-67
2022/06/02 09:49:16;;;;;;;2.25;1.98;;;;;;;21.68;56.79;100587.50;1685881;85;27281;-67
2022/06/02 09:52:08;;;;;;;3.45;2.20;;;;;;;22.01;56.09;100579.73;1685823;85;25469;-67
2022/06/02 09:55:04;;;;;;;2.62;2.05;;;;;;;22.58;56.50;100584.94;1685862;85;25730;-66
2022/06/02 09:57:57;;;;;;;2.10;1.90;;;;;;;23.28;56.14;100573.28;1685838;85;25737;-66
2022/06/02 10:00:44;;;;;;;3.35;1.60;;;;;;;23.81;54.25;100571.05;1673515;85;25740;-67
2022/06/02 10:03:55;;;;;;;3.15;1.77;;;;;;;24.17;52.41;100580.75;1662440;86;28386;-67
2022/06/02 10:06:52;;;;;;;2.50;1.52;;;;;;;24.63;50.86;100580.55;1656386;86;26088;-66
2022/06/02 10:09:33;;;;;;;1.92;1.40;;;;;;;25.13;50.46;100581.17;1652711;86;25751;-66
2022/06/02 10:12:54;;;;;;;2.60;1.32;;;;;;;25.55;48.48;100585.53;1657387;86;25688;-67
2022/06/02 10:15:46;;;;;;;2.00;1.45;;;;;;;25.79;47.63;100585.17;1657448;86;25560;-66
2022/06/02 10:18:36;;;;;;;3.08;1.50;;;;;;;26.21;47.23;100581.14;1660429;86;28212;-67
2022/06/02 10:21:31;;;;;;;1.40;0.88;;;;;;;26.23;45.57;100585.67;1633443;87;25665;-67
2022/06/02 10:24:24;;;;;;;0.95;0.90;;;;;;;25.91;40.23;100597.19;1632012;87;25772;-67
2022/06/02 10:27:43;;;;;;;1.07;0.90;;;;;;;25.45;41.85;100589.93;1660211;86;26377;-66
2022/06/02 10:30:18;;;;;;;;;;;;;;;25.35;42.40;100590.20;1635848;87;25603;-67
2022/06/02 10:33:42;;;;;;;1.60;1.40;;;;;;;25.76;42.30;100587.97;1622050;88;27342;-67
2022/06/02 10:36:36;;;;;;;2.05;0.90;;;;;;;26.10;42.46;100588.14;1620168;88;25719;-66
2022/06/02 10:39:29;;;;;;;1.82;0.90;;;;;;;26.73;42.13;100583.02;1620225;88;25715;-67
2022/06/02 10:42:29;;;;;;;1.95;0.93;;;;;;;27.17;40.52;100579.32;1632052;87;25811;-67
2022/06/02 10:45:19;;;;;;;2.20;0.90;;;;;;;27.21;36.97;100587.62;1632269;87;25776;-68
2022/06/02 10:48:05;;;;;;;2.47;0.70;;;;;;;26.98;38.53;100574.42;1632120;87;27597;-66
2022/06/02 10:51:10;;;;;;;0.70;0.70;;;;;;;26.98;37.63;100581.36;1631429;86;25721;-66
2022/06/02 10:54:24;;;;;;;1.25;0.70;;;;;;;26.84;38.11;100573.98;1631977;87;25777;-68
2022/06/02 10:57:41;;;;;;;0.62;0.62;;;;;;;26.94;37.18;100566.75;1630765;87;26682;-68
2022/06/02 11:00:42;;;;;;;2.22;1.47;;;;;;;26.43;36.53;100564.48;1638830;86;25849;-68
2022/06/02 11:03:59;;;;;;;3.17;0.98;;;;;;;26.01;36.36;100561.50;1662914;85;27663;-66
2022/06/02 11:07:13;;;;;;;1.85;0.70;;;;;;;26.13;38.33;100545.75;1683076;84;25903;-69
2022/06/02 11:10:25;;;;;;;0.70;0.65;;;;;;;26.68;38.39;100553.77;1663325;86;25768;-71
2022/06/02 11:13:29;;;;;;;2.25;0.60;;;;;;;26.77;36.65;100549.89;1683922;85;26530;-73
2022/06/02 11:16:29;;;;;;;1.32;0.65;;;;;;;26.30;35.81;100559.26;1661113;85;25797;-70
2022/06/02 11:19:31;;;;;;;2.35;0.50;;;;;;;25.99;36.95;100556.36;1658226;86;27444;-73
2022/06/02 11:22:41;;;;;;;0.78;0.60;;;;;;;26.34;37.21;100552.29;1678477;84;25739;-71
2022/06/02 11:25:46;;;;;;;1.00;0.50;;;;;;;26.32;35.61;100567.95;1637211;87;26019;-73
2022/06/02 11:29:08;;;;;;;1.67;0.60;;;;;;;26.05;34.25;100569.98;1683576;84;25773;-74
2022/06/02 11:32:13;;;;;;;1.25;0.53;;;;;;;25.94;34.71;100587.86;1680090;84;25737;-73
2022/06/02 11:35:00;;;;;;;0.70;0.60;;;;;;;25.52;33.77;100573.88;1665258;86;27517;-74
2022/06/02 11:37:43;;;;;;;1.00;0.98;;;;;;;25.18;35.08;100568.87;1665222;86;26009;-72
2022/06/02 11:40:59;;;;;;;0.75;0.75;;;;;;;25.07;34.25;100573.09;1679974;85;25823;-72
2022/06/02 11:44:12;;;;;;;2.05;0.50;;;;;;;25.10;34.23;100563.98;1673429;84;26178;-72
2022/06/02 11:47:26;;;;;;;0.65;0.60;;;;;;;25.19;34.35;100596.77;1687954;84;25766;-72
2022/06/02 11:50:10;;;;;;;1.98;0.85;;;;;;;24.73;34.28;100571.43;1642264;86;27343;-72
2022/06/02 11:52:59;;;;;;;0.40;0.40;;;;;;;24.16;35.62;100571.69;1633535;87;25834;-73
2022/06/02 11:55:54;;;;;;;2.45;0.80;;;;;;;24.14;36.54;100572.66;1633004;87;25673;-72
2022/06/02 11:58:35;;;;;;;2.15;0.80;;;;;;;24.03;36.81;100574.05;1640166;86;26455;-74
2022/06/02 12:01:31;;;;;;;0.80;0.75;;;;;;;23.96;37.41;100576.81;1621401;87;25978;-74
2022/06/02 12:04:52;;;;;;;0.80;0.65;;;;;;;24.14;37.52;100574.63;1637813;87;27363;-74
2022/06/02 12:07:45;;;;;;;1.35;0.80;;;;;;;24.42;38.04;100587.66;1640732;87;25731;-74
2022/06/02 12:10:39;;;;;;;0.85;0.70;;;;;;;24.26;37.66;100578.38;1613416;88;25746;-75
2022/06/02 12:13:47;;;;;;;1.40;0.88;;;;;;;24.59;37.97;100580.55;1609482;87;26346;-74
2022/06/02 12:16:46;;;;;;;2.17;0.80;;;;;;;24.84;36.54;100576.92;1621691;87;25868;-76
2022/06/02 12:19:36;;;;;;;0.60;0.60;;;;;;;24.84;36.02;100596.28;1607798;89;27351;-76
2022/06/02 12:22:28;;;;;;;0.72;0.62;;;;;;;24.81;34.96;100593.73;1607625;89;26511;-72
2022/06/02 12:25:22;;;;;;;3.33;0.70;;;;;;;24.38;34.24;100595.95;1639439;87;25785;-72
2022/06/02 12:28:27;;;;;;;2.22;1.90;;;;;;;24.48;35.95;100599.09;1700735;83;25782;-75
2022/06/02 12:31:35;;;;;;;0.98;0.75;;;;;;;24.66;34.88;100592.20;1712673;83;25678;-79
2022/06/02 12:34:42;;;;;;;0.53;0.53;;;;;;;24.45;34.66;100594.35;1680252;84;27393;-76
2022/06/02 12:37:43;;;;;;;1.00;0.62;;;;;;;24.65;35.99;100616.87;1682853;83;25781;-72
2022/06/02 12:40:52;;;;;;;1.72;0.60;;;;;;;24.77;35.18;100596.52;1707669;83;25741;-72
2022/06/02 12:43:57;;;;;;;0.75;0.68;;;;;;;25.03;35.19;100601.38;1691562;83;25779;-70
2022/06/02 12:47:01;;;;;;;1.72;0.62;;;;;;;25.26;34.46;100606.44;1723656;83;25739;-73
2022/06/02 12:49:43;;;;;;;2.25;0.78;;;;;;;25.03;34.09;100608.88;1665338;84;27321;-74
2022/06/02 12:52:29;;;;;;;1.32;0.90;;;;;;;24.95;34.03;100590.14;1700500;83;25823;-72
2022/06/02 12:55:32;;;;;;;0.65;0.65;;;;;;;24.94;33.99;100611.48;1697814;84;25706;-75
2022/06/02 12:58:32;;;;;;;0.90;0.90;;;;;;;24.92;34.10;100608.31;1720864;83;26362;-76
2022/06/02 13:01:27;;;;;;;0.72;0.60;;;;;;;24.93;34.57;100600.22;1669943;84;25729;-78
2022/06/02 13:04:24;;;;;;;1.50;0.50;;;;;;;24.65;34.30;100596.14;1698851;84;27353;-76
2022/06/02 13:07:06;;;;;;;0.78;0.65;;;;;;;24.50;33.26;100585.66;1711489;83;25608;-74
2022/06/02 13:09:54;;;;;;;1.05;0.90;;;;;;;24.76;34.79;100594.15;1706005;83;25686;-75
2022/06/02 13:12:35;;;;;;;2.12;0.82;;;;;;;24.69;33.68;100600.48;1671954;84;25686;-78
2022/06/02 13:15:51;;;;;;;1.07;0.95;;;;;;;24.30;34.31;100596.36;1648444;87;25694;-75
2022/06/02 13:18:37;;;;;;;0.68;0.68;;;;;;;24.56;34.77;100591.80;1711853;83;27405;-76
2022/06/02 13:21:43;;;;;;;1.15;0.90;;;;;;;24.98;33.77;100596.26;1690065;84;26162;-73
2022/06/02 13:24:27;;;;;;;1.15;0.90;;;;;;;25.01;32.42;100597.42;1718570;83;25378;-78